createdAt,value
2022-12-27T00:05:12.641Z,3.22
2022-12-27T00:10:37.712Z,2.75
2022-12-27T00:16:08.232Z,2.53
2022-12-27T00:21:30.302Z,4.05
2022-12-27T00:26:52.191Z,4.32
2022-12-27T00:32:14.000Z,4.43
2022-12-27T00:37:36.010Z,3.58
2022-12-27T00:42:57.905Z,2.95
2022-12-27T00:48:21.237Z,5.03
2022-12-27T00:53:44.662Z,3.03
2022-12-27T00:59:06.723Z,5.53
2022-12-27T01:04:28.493Z,4.93
2022-12-27T01:09:50.703Z,4.88
2022-12-27T01:15:13.123Z,4.18
2022-12-27T01:20:35.161Z,3.70
2022-12-27T01:26:06.540Z,5.00
2022-12-27T01:31:29.054Z,2.28
2022-12-27T01:36:51.321Z,4.60
2022-12-27T01:42:37.055Z,5.32
2022-12-27T01:48:07.455Z,3.33
2022-12-27T01:53:34.373Z,3.83
2022-12-27T01:59:09.862Z,4.50
2022-12-27T02:04:33.455Z,4.75
2022-12-27T02:09:59.345Z,5.45
2022-12-27T02:15:21.826Z,4.88
2022-12-27T02:21:19.216Z,5.40
2022-12-27T02:26:50.182Z,3.75
2022-12-27T02:32:30.312Z,5.80
2022-12-27T02:38:08.132Z,7.03
2022-12-27T02:43:49.095Z,5.22
2022-12-27T02:49:52.697Z,3.42
2022-12-27T02:55:33.428Z,5.47
2022-12-27T03:01:28.041Z,3.33
2022-12-27T03:07:19.076Z,4.50
2022-12-27T03:13:07.533Z,5.68
2022-12-27T03:18:37.205Z,2.95
2022-12-27T03:24:18.913Z,3.50
2022-12-27T03:29:59.683Z,3.97
2022-12-27T03:35:24.143Z,4.35
2022-12-27T03:41:24.230Z,4.35
2022-12-27T03:47:18.463Z,3.30
2022-12-27T03:52:44.680Z,2.45
2022-12-27T03:58:07.183Z,3.33
2022-12-27T04:03:29.630Z,2.17
2022-12-27T04:09:10.573Z,3.05
2022-12-27T04:14:50.731Z,2.45
2022-12-27T04:20:31.717Z,3.65
2022-12-27T04:26:12.223Z,3.15
2022-12-27T04:31:54.953Z,2.58
2022-12-27T04:37:19.863Z,3.10
2022-12-27T04:43:01.673Z,3.28
2022-12-27T04:48:42.403Z,3.00
2022-12-27T04:54:22.760Z,4.38
2022-12-27T05:00:02.980Z,3.22
2022-12-27T05:05:26.648Z,5.13
2022-12-27T05:11:07.309Z,4.75
2022-12-27T05:16:40.584Z,5.53
2022-12-27T05:22:20.930Z,3.50
2022-12-27T05:27:42.994Z,3.88
2022-12-27T05:33:05.214Z,3.83
2022-12-27T05:38:27.164Z,4.93
2022-12-27T05:43:52.641Z,5.10
2022-12-27T05:49:14.726Z,3.85
2022-12-27T05:54:36.663Z,5.22
2022-12-27T05:59:59.172Z,4.53
2022-12-27T06:05:21.345Z,4.63
2022-12-27T06:10:43.858Z,5.45
2022-12-27T06:16:08.224Z,5.75
2022-12-27T06:21:30.771Z,5.00
2022-12-27T06:26:53.087Z,5.43
2022-12-27T06:32:18.284Z,4.80
2022-12-27T06:37:40.455Z,6.30
2022-12-27T06:43:02.605Z,4.78
2022-12-27T06:48:25.465Z,5.20
2022-12-27T06:53:48.965Z,3.28
2022-12-27T06:59:11.503Z,4.80
2022-12-27T07:04:33.732Z,5.72
2022-12-27T07:09:55.911Z,4.20
2022-12-27T07:15:18.271Z,5.93
2022-12-27T07:20:41.653Z,3.28
2022-12-27T07:26:12.214Z,7.13
2022-12-27T07:31:34.833Z,5.22
2022-12-27T07:36:57.003Z,6.35
2022-12-27T07:42:19.225Z,6.28
2022-12-27T07:47:41.841Z,4.63
2022-12-27T07:53:04.064Z,5.50
2022-12-27T07:58:26.499Z,4.60
2022-12-27T08:03:48.677Z,5.43
2022-12-27T08:09:16.331Z,3.65
2022-12-27T08:14:38.175Z,5.10
2022-12-27T08:20:00.092Z,4.25
2022-12-27T08:25:22.481Z,5.13
2022-12-27T08:30:46.356Z,5.30
2022-12-27T08:41:55.039Z,2.97
2022-12-27T08:47:17.325Z,5.55
2022-12-27T08:52:39.707Z,5.15
2022-12-27T08:58:04.003Z,3.58
2022-12-27T09:03:26.193Z,2.10
2022-12-27T09:08:50.240Z,7.65
2022-12-27T09:14:12.224Z,7.60
2022-12-27T09:19:34.002Z,7.65
2022-12-27T09:24:56.200Z,6.43
2022-12-27T09:30:19.173Z,6.25
2022-12-27T09:35:41.144Z,5.68
2022-12-27T09:41:06.832Z,6.15
2022-12-27T09:46:47.970Z,4.95
2022-12-27T09:52:26.900Z,7.10
2022-12-27T09:57:49.251Z,5.35
2022-12-27T10:03:12.403Z,6.55
2022-12-27T10:09:11.613Z,8.43
2022-12-27T10:15:11.883Z,8.73
2022-12-27T10:21:09.165Z,6.95
2022-12-27T10:26:31.095Z,6.07
2022-12-27T10:31:54.068Z,6.68
2022-12-27T10:37:16.872Z,8.45
2022-12-27T10:42:52.768Z,5.68
2022-12-27T10:48:21.470Z,5.82
2022-12-27T10:53:47.327Z,6.67
2022-12-27T10:59:28.775Z,7.40
2022-12-27T11:05:01.693Z,8.02
2022-12-27T11:10:27.707Z,7.73
2022-12-27T11:15:59.075Z,8.52
2022-12-27T11:21:27.468Z,7.70
2022-12-27T11:26:58.717Z,6.57
2022-12-27T11:32:24.473Z,4.70
2022-12-27T11:37:48.540Z,9.30
2022-12-27T11:43:16.075Z,6.90
2022-12-27T11:48:46.217Z,5.78
2022-12-27T11:54:34.282Z,5.88
2022-12-27T12:00:14.350Z,9.05
2022-12-27T12:05:59.371Z,5.45
2022-12-27T12:11:36.714Z,5.90
2022-12-27T12:17:39.398Z,8.05
2022-12-27T12:23:36.935Z,5.03
2022-12-27T12:29:26.402Z,4.97
2022-12-27T12:34:59.614Z,8.27
2022-12-27T12:40:38.331Z,9.02
2022-12-27T12:46:32.791Z,8.13
2022-12-27T12:52:30.898Z,2.88
2022-12-27T12:58:23.680Z,7.65
2022-12-27T13:03:55.501Z,7.63
2022-12-27T13:09:45.393Z,4.97
2022-12-27T13:15:21.530Z,5.70
2022-12-27T13:21:14.819Z,8.27
2022-12-27T13:26:42.713Z,7.95
2022-12-27T13:32:42.060Z,8.75
2022-12-27T13:38:23.815Z,6.32
2022-12-27T13:43:57.110Z,7.10
2022-12-27T13:49:50.476Z,9.50
2022-12-27T13:55:22.543Z,10.10
2022-12-27T14:01:20.115Z,7.35
2022-12-27T14:06:54.195Z,8.10
2022-12-27T14:12:34.830Z,9.82
2022-12-27T14:18:08.983Z,7.82
2022-12-27T14:24:14.822Z,9.15
2022-12-27T14:29:54.884Z,9.68
2022-12-27T14:35:31.391Z,11.05
2022-12-27T14:41:11.813Z,10.98
2022-12-27T14:47:15.673Z,9.75
2022-12-27T14:53:18.048Z,10.18
2022-12-27T14:58:40.086Z,10.30
2022-12-27T15:04:23.982Z,11.38
2022-12-27T15:10:00.395Z,7.47
2022-12-27T15:15:47.907Z,8.40
2022-12-27T15:21:39.888Z,7.53
2022-12-27T15:27:34.961Z,9.25
2022-12-27T15:33:15.512Z,8.05
2022-12-27T15:38:54.430Z,6.97
2022-12-27T15:44:19.631Z,9.30
2022-12-27T15:50:13.848Z,9.27
2022-12-27T15:56:00.408Z,9.15
2022-12-27T16:01:30.125Z,10.18
2022-12-27T16:12:37.864Z,10.52
2022-12-27T16:18:00.100Z,11.88
2022-12-27T16:23:27.233Z,9.57
2022-12-27T16:29:02.455Z,9.20
2022-12-27T16:34:33.174Z,9.32
2022-12-27T16:40:17.916Z,10.88
2022-12-27T16:45:51.986Z,10.25
2022-12-27T16:51:18.332Z,10.13
2022-12-27T16:56:45.373Z,8.07
2022-12-27T17:02:39.584Z,8.40
2022-12-27T17:08:02.009Z,7.82
2022-12-27T17:13:44.282Z,8.48
2022-12-27T17:19:15.762Z,10.25
2022-12-27T17:24:45.933Z,8.75
2022-12-27T17:30:24.955Z,11.15
2022-12-27T17:36:27.513Z,9.40
2022-12-27T17:42:45.995Z,8.45
2022-12-27T17:48:12.952Z,8.60
2022-12-27T17:53:53.903Z,12.30
2022-12-27T17:59:26.324Z,6.78
2022-12-27T18:04:52.249Z,10.07
2022-12-27T18:10:21.162Z,6.68
2022-12-27T18:15:46.367Z,7.35
2022-12-27T18:21:24.611Z,9.35
2022-12-27T18:26:47.100Z,10.52
2022-12-27T18:32:13.375Z,9.80
2022-12-27T18:37:36.958Z,10.90
2022-12-27T18:42:58.872Z,8.95
2022-12-27T18:48:21.031Z,8.70
2022-12-27T18:53:46.082Z,9.10
2022-12-27T18:59:17.342Z,9.07
2022-12-27T19:04:39.412Z,8.18
2022-12-27T19:10:02.416Z,7.47
2022-12-27T19:15:36.533Z,9.82
2022-12-27T19:21:01.963Z,9.55
2022-12-27T19:26:33.892Z,11.90
2022-12-27T19:32:03.300Z,9.15
2022-12-27T19:37:30.960Z,7.90
2022-12-27T19:42:53.066Z,8.35
2022-12-27T19:48:14.581Z,4.97
2022-12-27T19:53:42.632Z,10.93
2022-12-27T19:59:04.801Z,10.90
2022-12-27T20:04:26.836Z,8.98
2022-12-27T20:09:49.353Z,7.90
2022-12-27T20:15:11.544Z,8.45
2022-12-27T20:20:33.231Z,7.80
2022-12-27T20:25:57.103Z,8.02
2022-12-27T20:31:22.285Z,8.65
2022-12-27T20:36:45.212Z,7.95
2022-12-27T20:42:09.550Z,9.63
2022-12-27T20:47:39.673Z,8.18
2022-12-27T20:53:01.971Z,8.93
2022-12-27T20:58:24.382Z,7.18
2022-12-27T21:03:46.719Z,9.40
2022-12-27T21:09:09.416Z,10.85
2022-12-27T21:14:31.746Z,8.68
2022-12-27T21:19:54.133Z,9.93
2022-12-27T21:25:19.474Z,7.90
2022-12-27T21:30:42.126Z,6.03
2022-12-27T21:36:16.282Z,9.82
2022-12-27T21:41:40.917Z,7.30
2022-12-27T21:47:03.114Z,9.63
2022-12-27T21:52:24.803Z,10.80
2022-12-27T21:57:47.283Z,11.13
2022-12-27T22:03:09.796Z,13.32
2022-12-27T22:08:31.994Z,8.13
2022-12-27T22:13:54.492Z,11.13
2022-12-27T22:19:16.649Z,10.43
2022-12-27T22:24:38.884Z,10.20
2022-12-27T22:30:01.382Z,6.78
2022-12-27T22:35:25.279Z,10.77
2022-12-27T22:40:49.311Z,8.52
2022-12-27T22:46:13.735Z,8.00
2022-12-27T22:51:37.565Z,9.30
2022-12-27T22:57:00.052Z,7.70
2022-12-27T23:02:22.463Z,10.05
2022-12-27T23:08:05.781Z,11.18
2022-12-27T23:13:27.072Z,9.27
2022-12-27T23:18:49.791Z,10.50
2022-12-27T23:24:12.443Z,11.80
2022-12-27T23:29:34.492Z,13.23
2022-12-27T23:34:56.294Z,10.35
2022-12-27T23:40:18.732Z,7.45
2022-12-27T23:45:40.895Z,7.15
2022-12-27T23:51:03.351Z,9.55
2022-12-27T23:56:31.224Z,10.35
